createdAt,value
2018-10-02T00:01:15.095Z,3.40
2018-10-02T00:03:44.622Z,3.30
2018-10-02T00:06:14.032Z,3.30
2018-10-02T00:08:43.342Z,3.30
2018-10-02T00:11:18.362Z,3.30
2018-10-02T00:13:52.979Z,3.30
2018-10-02T00:16:22.635Z,3.20
2018-10-02T00:18:52.693Z,3.20
2018-10-02T00:21:22.031Z,3.20
2018-10-02T00:23:51.408Z,3.20
2018-10-02T00:26:20.863Z,3.20
2018-10-02T00:28:50.306Z,3.20
2018-10-02T00:31:19.686Z,3.20
2018-10-02T00:33:49.107Z,3.20
2018-10-02T00:36:18.469Z,3.20
2018-10-02T00:38:47.817Z,3.20
2018-10-02T00:41:17.175Z,3.20
2018-10-02T00:43:46.502Z,3.10
2018-10-02T00:46:15.818Z,3.10
2018-10-02T00:48:45.176Z,3.00
2018-10-02T00:51:14.526Z,3.10
2018-10-02T00:53:43.882Z,3.10
2018-10-02T00:56:13.309Z,3.00
2018-10-02T00:58:42.700Z,3.00
2018-10-02T01:01:12.177Z,2.90
2018-10-02T01:03:41.663Z,2.90
2018-10-02T01:06:11.083Z,3.00
2018-10-02T01:08:40.426Z,2.90
2018-10-02T01:11:09.782Z,2.90
2018-10-02T01:13:39.230Z,2.90
2018-10-02T01:16:08.628Z,2.80
2018-10-02T01:18:38.012Z,2.80
2018-10-02T01:21:07.391Z,2.90
2018-10-02T01:23:36.697Z,2.90
2018-10-02T01:26:06.191Z,2.90
2018-10-02T01:28:36.169Z,2.90
2018-10-02T01:31:05.607Z,2.90
2018-10-02T01:33:34.905Z,2.90
2018-10-02T01:36:05.580Z,2.90
2018-10-02T01:38:35.007Z,2.90
2018-10-02T01:41:04.610Z,3.00
2018-10-02T01:43:33.910Z,2.90
2018-10-02T01:46:03.478Z,2.90
2018-10-02T01:48:32.810Z,2.90
2018-10-02T01:51:02.143Z,3.00
2018-10-02T01:53:31.582Z,3.00
2018-10-02T01:56:01.044Z,3.00
2018-10-02T01:58:30.367Z,3.10
2018-10-02T02:00:59.725Z,3.10
2018-10-02T02:03:29.331Z,3.00
2018-10-02T02:05:58.672Z,2.90
2018-10-02T02:08:28.003Z,3.10
2018-10-02T02:10:57.382Z,3.10
2018-10-02T02:13:27.347Z,3.10
2018-10-02T02:15:56.683Z,3.10
2018-10-02T02:18:26.114Z,3.10
2018-10-02T02:20:55.579Z,3.20
2018-10-02T02:23:25.162Z,3.10
2018-10-02T02:25:54.526Z,3.10
2018-10-02T02:28:23.941Z,3.10
2018-10-02T02:30:53.303Z,3.20
2018-10-02T02:33:22.653Z,3.20
2018-10-02T02:35:52.116Z,3.20
2018-10-02T02:38:21.568Z,3.20
2018-10-02T02:40:50.959Z,3.20
2018-10-02T02:43:20.269Z,3.30
2018-10-02T02:45:49.651Z,3.30
2018-10-02T02:48:24.555Z,3.40
2018-10-02T02:51:57.387Z,3.40
2018-10-02T02:54:26.730Z,3.40
2018-10-02T02:56:56.343Z,3.50
2018-10-02T02:59:25.787Z,3.50
2018-10-02T03:01:55.115Z,3.50
2018-10-02T03:04:24.496Z,3.50
2018-10-02T03:06:53.882Z,3.60
2018-10-02T03:09:23.213Z,3.40
2018-10-02T03:11:52.530Z,3.50
2018-10-02T03:14:21.908Z,3.60
2018-10-02T03:16:51.220Z,3.60
2018-10-02T03:19:20.632Z,3.70
2018-10-02T03:21:50.029Z,3.70
2018-10-02T03:24:19.414Z,3.70
2018-10-02T03:26:48.817Z,3.80
2018-10-02T03:29:18.221Z,3.80
2018-10-02T03:31:47.616Z,3.80
2018-10-02T03:34:17.101Z,3.80
2018-10-02T03:36:46.451Z,3.80
2018-10-02T03:39:15.857Z,3.80
2018-10-02T03:41:45.245Z,3.80
2018-10-02T03:44:14.566Z,3.70
2018-10-02T03:46:43.900Z,3.70
2018-10-02T03:49:13.401Z,3.70
2018-10-02T03:51:42.774Z,3.80
2018-10-02T03:54:12.227Z,3.80
2018-10-02T03:56:41.580Z,3.90
2018-10-02T03:59:10.889Z,3.90
2018-10-02T04:01:40.228Z,3.90
2018-10-02T04:04:09.657Z,3.80
2018-10-02T04:06:39.261Z,3.70
2018-10-02T04:09:10.359Z,3.70
2018-10-02T04:11:39.846Z,3.60
2018-10-02T04:14:09.384Z,3.70
2018-10-02T04:16:38.909Z,3.60
2018-10-02T04:19:08.862Z,3.70
2018-10-02T04:21:38.428Z,3.70
2018-10-02T04:24:08.740Z,3.70
2018-10-02T04:26:38.598Z,3.80
2018-10-02T04:29:08.257Z,3.90
2018-10-02T04:31:38.585Z,3.80
2018-10-02T04:34:07.950Z,3.80
2018-10-02T04:36:37.303Z,3.80
2018-10-02T04:39:08.373Z,3.90
2018-10-02T04:41:38.229Z,3.90
2018-10-02T04:44:07.601Z,3.90
2018-10-02T04:46:37.086Z,4.00
2018-10-02T04:49:06.638Z,3.90
2018-10-02T04:51:36.019Z,3.90
2018-10-02T04:54:05.405Z,3.90
2018-10-02T04:56:34.739Z,4.00
2018-10-02T04:59:04.185Z,3.90
2018-10-02T05:01:33.618Z,4.00
2018-10-02T05:04:03.022Z,3.90
2018-10-02T05:06:32.453Z,3.90
2018-10-02T05:09:02.756Z,4.10
2018-10-02T05:11:32.192Z,4.30
2018-10-02T05:14:01.659Z,4.40
2018-10-02T05:16:31.004Z,4.40
2018-10-02T05:19:00.600Z,4.40
2018-10-02T05:21:30.191Z,4.40
2018-10-02T05:23:59.779Z,4.50
2018-10-02T05:26:29.138Z,4.60
2018-10-02T05:28:58.724Z,4.60
2018-10-02T05:31:28.051Z,4.60
2018-10-02T05:33:57.594Z,4.70
2018-10-02T05:36:26.974Z,4.60
2018-10-02T05:38:56.341Z,4.60
2018-10-02T05:41:25.669Z,4.80
2018-10-02T05:43:56.283Z,4.80
2018-10-02T05:46:26.921Z,4.90
2018-10-02T05:48:56.504Z,4.90
2018-10-02T05:51:25.873Z,4.90
2018-10-02T05:53:55.423Z,5.00
2018-10-02T05:56:24.879Z,5.00
2018-10-02T05:58:54.230Z,5.10
2018-10-02T06:01:24.300Z,4.90
2018-10-02T06:03:53.853Z,5.00
2018-10-02T06:06:23.279Z,5.00
2018-10-02T06:08:53.069Z,5.10
2018-10-02T06:11:22.424Z,5.10
2018-10-02T06:13:51.767Z,5.20
2018-10-02T06:16:21.215Z,5.20
2018-10-02T06:18:50.762Z,5.30
2018-10-02T06:21:20.079Z,5.40
2018-10-02T06:23:49.537Z,5.50
2018-10-02T06:26:19.812Z,5.60
2018-10-02T06:28:49.345Z,5.70
2018-10-02T06:31:18.693Z,5.70
2018-10-02T06:33:48.065Z,5.80
2018-10-02T06:36:17.407Z,5.90
2018-10-02T06:38:46.827Z,5.90
2018-10-02T06:41:16.155Z,6.00
2018-10-02T06:43:45.713Z,6.00
2018-10-02T06:46:15.079Z,6.10
2018-10-02T06:48:44.614Z,6.10
2018-10-02T06:51:14.175Z,6.10
2018-10-02T06:53:43.480Z,6.20
2018-10-02T06:56:12.852Z,6.20
2018-10-02T06:58:42.219Z,6.20
2018-10-02T07:01:11.772Z,6.20
2018-10-02T07:03:41.079Z,6.30
2018-10-02T07:06:10.449Z,6.30
2018-10-02T07:08:39.823Z,6.30
2018-10-02T07:11:09.166Z,6.40
2018-10-02T07:13:38.583Z,6.30
2018-10-02T07:16:08.198Z,6.30
2018-10-02T07:18:37.523Z,6.40
2018-10-02T07:21:08.068Z,6.30
2018-10-02T07:23:37.453Z,6.30
2018-10-02T07:26:06.891Z,6.30
2018-10-02T07:28:36.911Z,6.30
2018-10-02T07:31:06.915Z,6.30
2018-10-02T07:33:39.237Z,6.30
2018-10-02T07:36:09.995Z,6.30
2018-10-02T07:38:39.802Z,6.30
2018-10-02T07:41:09.149Z,6.40
2018-10-02T07:43:39.510Z,6.30
2018-10-02T07:46:08.978Z,6.40
2018-10-02T07:48:39.717Z,6.40
2018-10-02T07:51:09.265Z,6.30
2018-10-02T07:53:38.773Z,6.40
2018-10-02T07:56:08.337Z,6.40
2018-10-02T07:58:38.977Z,6.40
2018-10-02T08:01:08.708Z,6.40
2018-10-02T08:03:38.066Z,6.50
2018-10-02T08:06:09.149Z,6.50
2018-10-02T08:08:38.598Z,6.50
2018-10-02T08:11:08.246Z,6.50
2018-10-02T08:13:37.658Z,6.60
2018-10-02T08:16:07.054Z,6.60
2018-10-02T08:18:36.494Z,6.60
2018-10-02T08:21:06.352Z,6.50
2018-10-02T08:23:35.843Z,6.50
2018-10-02T08:26:05.221Z,6.60
2018-10-02T08:28:34.697Z,6.50
2018-10-02T08:31:04.152Z,6.50
2018-10-02T08:33:33.642Z,6.60
2018-10-02T08:36:03.403Z,6.60
2018-10-02T08:38:32.501Z,6.60
2018-10-02T08:41:02.006Z,6.80
2018-10-02T08:43:31.552Z,6.80
2018-10-02T08:46:01.064Z,6.80
2018-10-02T08:48:30.504Z,6.70
2018-10-02T08:51:00.161Z,6.80
2018-10-02T08:53:29.884Z,6.80
2018-10-02T08:55:59.226Z,6.80
2018-10-02T08:58:28.692Z,6.70
2018-10-02T09:00:58.212Z,6.80
2018-10-02T09:03:28.783Z,6.80
2018-10-02T09:05:58.396Z,6.70
2018-10-02T09:08:27.769Z,6.70
2018-10-02T09:10:58.068Z,6.80
2018-10-02T09:13:28.008Z,6.80
2018-10-02T09:15:57.592Z,6.70
2018-10-02T09:18:26.970Z,6.80
2018-10-02T09:20:56.430Z,6.80
2018-10-02T09:23:26.968Z,6.70
2018-10-02T09:25:56.318Z,6.80
2018-10-02T09:28:25.884Z,6.80
2018-10-02T09:31:00.704Z,6.90
2018-10-02T09:33:35.368Z,7.00
2018-10-02T09:36:10.362Z,7.00
2018-10-02T09:38:45.177Z,6.90
2018-10-02T09:41:19.958Z,6.80
2018-10-02T09:43:52.545Z,7.00
2018-10-02T09:46:23.025Z,7.00
2018-10-02T09:48:52.496Z,6.80
2018-10-02T09:51:22.432Z,6.90
2018-10-02T09:53:52.034Z,6.80
2018-10-02T09:56:21.480Z,7.00
2018-10-02T09:58:50.804Z,7.00
2018-10-02T10:01:25.781Z,7.00
2018-10-02T10:03:55.260Z,7.10
2018-10-02T10:06:24.637Z,7.10
2018-10-02T10:08:54.067Z,7.20
2018-10-02T10:11:23.487Z,7.20
2018-10-02T10:13:53.088Z,7.00
2018-10-02T10:16:22.489Z,7.10
2018-10-02T10:18:51.837Z,7.10
2018-10-02T10:21:22.259Z,7.20
2018-10-02T10:23:51.822Z,7.30
2018-10-02T10:26:21.229Z,7.20
2018-10-02T10:28:50.692Z,7.30
2018-10-02T10:31:20.059Z,7.30
2018-10-02T10:33:49.465Z,7.30
2018-10-02T10:36:18.888Z,7.30
2018-10-02T10:38:48.392Z,7.30
2018-10-02T10:41:17.810Z,7.30
2018-10-02T10:43:47.356Z,7.30
2018-10-02T10:46:16.823Z,7.30
2018-10-02T10:48:46.279Z,7.50
2018-10-02T10:51:15.668Z,7.40
2018-10-02T10:53:45.084Z,7.40
2018-10-02T10:56:14.596Z,7.30
2018-10-02T10:58:44.158Z,7.40
2018-10-02T11:01:13.864Z,7.40
2018-10-02T11:03:43.340Z,7.40
2018-10-02T11:06:14.037Z,7.40
2018-10-02T11:08:43.383Z,7.50
2018-10-02T11:11:12.963Z,7.40
2018-10-02T11:13:42.586Z,7.40
2018-10-02T11:16:11.944Z,7.50
2018-10-02T11:18:41.341Z,7.60
2018-10-02T11:21:10.838Z,7.60
2018-10-02T11:23:40.225Z,7.50
2018-10-02T11:26:09.758Z,7.50
2018-10-02T11:28:39.197Z,7.50
2018-10-02T11:31:08.769Z,7.60
2018-10-02T11:33:39.082Z,7.60
2018-10-02T11:36:08.429Z,7.60
2018-10-02T11:38:37.794Z,7.60
2018-10-02T11:41:07.386Z,7.70
2018-10-02T11:43:36.771Z,7.70
2018-10-02T11:46:06.445Z,7.60
2018-10-02T11:48:37.617Z,7.60
2018-10-02T11:51:07.292Z,7.50
2018-10-02T11:53:36.547Z,7.70
2018-10-02T11:56:06.277Z,7.70
2018-10-02T11:58:35.633Z,7.60
2018-10-02T12:01:05.428Z,7.60
2018-10-02T12:03:35.566Z,7.70
2018-10-02T12:06:04.960Z,7.70
2018-10-02T12:08:34.408Z,7.60
2018-10-02T12:11:04.189Z,7.60
2018-10-02T12:13:33.576Z,7.60
2018-10-02T12:16:03.396Z,7.70
2018-10-02T12:18:34.222Z,7.70
2018-10-02T12:21:04.469Z,7.70
2018-10-02T12:23:35.900Z,7.70
2018-10-02T12:26:09.553Z,7.70
2018-10-02T12:28:41.616Z,7.70
2018-10-02T12:31:23.600Z,7.70
2018-10-02T12:33:56.507Z,7.70
2018-10-02T12:36:30.230Z,7.70
2018-10-02T12:39:09.401Z,7.70
2018-10-02T12:41:42.438Z,7.70
2018-10-02T12:44:16.743Z,7.70
2018-10-02T12:46:46.374Z,7.70
2018-10-02T12:49:15.796Z,7.80
2018-10-02T12:51:45.266Z,7.80
2018-10-02T12:54:14.861Z,7.80
2018-10-02T12:56:44.366Z,7.80
2018-10-02T12:59:13.937Z,7.90
2018-10-02T13:01:43.442Z,8.00
2018-10-02T13:04:12.961Z,7.80
2018-10-02T13:06:42.327Z,7.80
2018-10-02T13:09:11.806Z,7.80
2018-10-02T13:11:41.158Z,7.90
2018-10-02T13:14:10.697Z,8.00
2018-10-02T13:16:40.221Z,7.90
2018-10-02T13:19:09.755Z,7.90
2018-10-02T13:21:39.189Z,7.90
2018-10-02T13:24:08.790Z,7.90
2018-10-02T13:26:38.321Z,7.90
2018-10-02T13:29:07.879Z,8.00
2018-10-02T13:31:37.803Z,8.00
2018-10-02T13:34:08.128Z,7.80
2018-10-02T13:36:38.849Z,8.00
2018-10-02T13:39:09.134Z,8.00
2018-10-02T13:41:38.813Z,8.00
2018-10-02T13:44:08.179Z,7.90
2018-10-02T13:46:38.390Z,8.00
2018-10-02T13:49:07.771Z,8.00
2018-10-02T13:51:37.262Z,8.00
2018-10-02T13:54:06.607Z,8.10
2018-10-02T13:56:36.981Z,8.10
2018-10-02T13:59:06.762Z,8.20
2018-10-02T14:01:36.081Z,8.20
2018-10-02T14:04:05.518Z,8.20
2018-10-02T14:06:34.928Z,8.20
2018-10-02T14:09:06.172Z,8.30
2018-10-02T14:11:35.567Z,8.30
2018-10-02T14:14:05.143Z,8.40
2018-10-02T14:16:34.677Z,8.40
2018-10-02T14:19:04.068Z,8.40
2018-10-02T14:21:33.555Z,8.50
2018-10-02T14:24:02.988Z,8.50
2018-10-02T14:26:32.345Z,8.50
2018-10-02T14:29:01.698Z,8.50
2018-10-02T14:31:31.113Z,8.60
2018-10-02T14:34:00.446Z,8.60
2018-10-02T14:36:29.902Z,8.60
2018-10-02T14:38:59.341Z,8.70
2018-10-02T14:41:28.700Z,8.80
2018-10-02T14:44:00.447Z,8.80
2018-10-02T14:46:31.514Z,8.90
2018-10-02T14:49:09.905Z,8.90
2018-10-02T14:51:45.692Z,8.90
2018-10-02T14:54:17.704Z,9.00
2018-10-02T14:56:46.851Z,9.10
2018-10-02T14:59:22.783Z,9.10
2018-10-02T15:01:52.006Z,9.10
2018-10-02T15:04:21.034Z,9.20
2018-10-02T15:06:50.110Z,9.20
2018-10-02T15:09:19.190Z,9.20
2018-10-02T15:11:48.181Z,9.30
2018-10-02T15:14:18.522Z,9.30
2018-10-02T15:16:47.594Z,9.40
2018-10-02T15:19:17.174Z,9.30
2018-10-02T15:21:46.742Z,9.40
2018-10-02T15:24:16.139Z,9.40
2018-10-02T15:26:45.658Z,9.40
2018-10-02T15:29:15.134Z,9.40
2018-10-02T15:31:44.758Z,9.40
2018-10-02T15:34:14.256Z,9.30
2018-10-02T15:36:43.714Z,9.30
2018-10-02T15:39:13.235Z,9.30
2018-10-02T15:41:42.701Z,9.30
2018-10-02T15:44:12.303Z,9.30
2018-10-02T15:46:42.124Z,9.20
2018-10-02T15:49:11.798Z,9.30
2018-10-02T15:51:41.388Z,9.30
2018-10-02T15:54:10.980Z,9.30
2018-10-02T15:56:40.608Z,9.30
2018-10-02T15:59:10.226Z,9.30
2018-10-02T16:01:39.874Z,9.30
2018-10-02T16:04:09.293Z,9.30
2018-10-02T16:06:38.858Z,9.30
2018-10-02T16:09:09.320Z,9.30
2018-10-02T16:11:39.115Z,9.30
2018-10-02T16:14:08.645Z,9.30
2018-10-02T16:16:38.247Z,9.30
2018-10-02T16:19:08.774Z,9.30
2018-10-02T16:21:38.345Z,9.30
2018-10-02T16:24:08.043Z,9.30
2018-10-02T16:26:37.560Z,9.40
2018-10-02T16:29:07.200Z,9.40
2018-10-02T16:31:36.815Z,9.40
2018-10-02T16:34:06.728Z,9.40
2018-10-02T16:36:37.208Z,9.30
2018-10-02T16:39:08.778Z,9.40
2018-10-02T16:41:38.746Z,9.40
2018-10-02T16:44:08.226Z,9.40
2018-10-02T16:46:37.934Z,9.40
2018-10-02T16:49:07.619Z,9.30
2018-10-02T16:51:37.055Z,9.40
2018-10-02T16:54:08.618Z,9.40
2018-10-02T16:56:38.328Z,9.50
2018-10-02T16:59:08.100Z,9.50
2018-10-02T17:01:37.629Z,9.40
2018-10-02T17:04:07.510Z,9.40
2018-10-02T17:06:36.897Z,9.40
2018-10-02T17:09:07.654Z,9.40
2018-10-02T17:11:37.505Z,9.40
2018-10-02T17:14:07.225Z,9.50
2018-10-02T17:16:37.035Z,9.50
2018-10-02T17:19:06.909Z,9.50
2018-10-02T17:21:37.560Z,9.50
2018-10-02T17:24:07.170Z,9.60
2018-10-02T17:26:36.667Z,9.50
2018-10-02T17:29:06.297Z,9.50
2018-10-02T17:31:35.963Z,9.50
2018-10-02T17:34:05.414Z,9.50
2018-10-02T17:36:34.905Z,9.50
2018-10-02T17:39:06.168Z,9.50
2018-10-02T17:41:35.677Z,9.40
2018-10-02T17:44:05.134Z,9.40
2018-10-02T17:46:34.617Z,9.50
2018-10-02T17:49:05.124Z,9.50
2018-10-02T17:51:34.632Z,9.40
2018-10-02T17:54:04.115Z,9.30
2018-10-02T17:56:33.548Z,9.30
2018-10-02T17:59:03.129Z,9.30
2018-10-02T18:01:32.931Z,9.30
2018-10-02T18:04:02.181Z,9.30
2018-10-02T18:06:31.616Z,9.30
2018-10-02T18:09:01.095Z,9.30
2018-10-02T18:11:30.524Z,9.30
2018-10-02T18:14:00.160Z,9.30
2018-10-02T18:16:29.590Z,9.40
2018-10-02T18:18:59.006Z,9.40
2018-10-02T18:21:29.279Z,9.40
2018-10-02T18:23:58.962Z,9.50
2018-10-02T18:26:28.318Z,9.50
2018-10-02T18:28:57.671Z,9.60
2018-10-02T18:31:27.207Z,9.70
2018-10-02T18:33:56.710Z,9.80
2018-10-02T18:36:26.166Z,9.80
2018-10-02T18:38:55.764Z,9.70
2018-10-02T18:41:25.270Z,9.80
2018-10-02T18:43:55.845Z,9.80
2018-10-02T18:46:25.189Z,9.90
2018-10-02T18:48:54.720Z,9.90
2018-10-02T18:51:24.237Z,10.00
2018-10-02T18:53:53.766Z,9.90
2018-10-02T18:56:23.359Z,10.00
2018-10-02T18:58:52.755Z,10.00
2018-10-02T19:01:22.118Z,10.10
2018-10-02T19:03:51.480Z,10.00
2018-10-02T19:06:21.271Z,10.10
2018-10-02T19:08:55.885Z,10.10
2018-10-02T19:11:30.635Z,10.10
2018-10-02T19:14:00.055Z,10.20
2018-10-02T19:16:31.396Z,10.20
2018-10-02T19:19:01.094Z,10.20
2018-10-02T19:21:30.635Z,10.20
2018-10-02T19:24:00.041Z,10.10
2018-10-02T19:26:30.024Z,10.10
2018-10-02T19:28:59.519Z,10.20
2018-10-02T19:31:34.291Z,10.10
2018-10-02T19:34:03.960Z,10.10
2018-10-02T19:36:33.641Z,10.10
2018-10-02T19:39:07.797Z,10.00
2018-10-02T19:41:37.404Z,10.00
2018-10-02T19:44:06.949Z,10.00
2018-10-02T19:46:46.240Z,10.00
2018-10-02T19:49:18.305Z,9.90
2018-10-02T19:51:54.070Z,9.80
2018-10-02T19:54:24.389Z,9.90
2018-10-02T19:56:54.115Z,9.90
2018-10-02T19:59:23.730Z,9.90
2018-10-02T20:01:53.420Z,9.90
2018-10-02T20:04:23.007Z,9.80
2018-10-02T20:06:52.689Z,9.90
2018-10-02T20:09:22.480Z,9.90
2018-10-02T20:11:52.141Z,9.90
2018-10-02T20:14:21.528Z,9.90
2018-10-02T20:16:50.994Z,9.80
2018-10-02T20:19:20.314Z,9.80
2018-10-02T20:21:49.902Z,9.80
2018-10-02T20:24:19.661Z,9.70
2018-10-02T20:26:49.037Z,9.70
2018-10-02T20:29:18.350Z,9.70
2018-10-02T20:31:50.712Z,9.60
2018-10-02T20:34:20.214Z,9.50
2018-10-02T20:36:49.759Z,9.40
2018-10-02T20:39:19.441Z,9.30
2018-10-02T20:41:49.072Z,9.30
2018-10-02T20:44:18.509Z,9.30
2018-10-02T20:46:48.516Z,9.30
2018-10-02T20:49:17.989Z,9.30
2018-10-02T20:51:47.457Z,9.20
2018-10-02T20:54:16.789Z,9.20
2018-10-02T20:56:46.095Z,9.20
2018-10-02T20:59:15.562Z,9.20
2018-10-02T21:01:44.963Z,9.10
2018-10-02T21:04:14.480Z,9.10
2018-10-02T21:06:43.992Z,9.10
2018-10-02T21:09:13.912Z,9.10
2018-10-02T21:11:43.417Z,9.10
2018-10-02T21:14:12.759Z,9.10
2018-10-02T21:16:42.231Z,9.10
2018-10-02T21:19:11.779Z,9.10
2018-10-02T21:21:41.216Z,9.20
2018-10-02T21:24:10.633Z,9.30
2018-10-02T21:26:40.036Z,9.30
2018-10-02T21:29:09.393Z,9.30
2018-10-02T21:31:38.873Z,9.30
2018-10-02T21:34:08.211Z,9.30
2018-10-02T21:36:37.647Z,9.30
2018-10-02T21:39:08.505Z,9.30
2018-10-02T21:41:37.850Z,9.30
2018-10-02T21:44:07.614Z,9.40
2018-10-02T21:46:36.984Z,9.50
2018-10-02T21:49:06.937Z,9.50
2018-10-02T21:51:36.479Z,9.60
2018-10-02T21:54:06.080Z,9.50
2018-10-02T21:56:35.581Z,9.70
2018-10-02T21:59:05.029Z,9.70
2018-10-02T22:01:34.406Z,9.70
2018-10-02T22:04:03.787Z,9.70
2018-10-02T22:06:33.146Z,9.80
2018-10-02T22:09:02.618Z,9.80
2018-10-02T22:11:31.973Z,9.90
2018-10-02T22:14:01.290Z,9.80
2018-10-02T22:16:30.624Z,9.80
2018-10-02T22:18:59.949Z,9.90
2018-10-02T22:21:29.536Z,9.80
2018-10-02T22:23:58.911Z,9.90
2018-10-02T22:26:28.462Z,9.90
2018-10-02T22:28:57.842Z,9.90
2018-10-02T22:31:27.202Z,9.90
2018-10-02T22:33:56.559Z,10.00
2018-10-02T22:36:25.987Z,9.90
2018-10-02T22:38:55.396Z,9.90
2018-10-02T22:41:24.810Z,9.90
2018-10-02T22:43:54.212Z,9.90
2018-10-02T22:46:23.560Z,9.90
2018-10-02T22:48:52.927Z,10.00
2018-10-02T22:51:22.373Z,10.00
2018-10-02T22:53:51.804Z,9.90
2018-10-02T22:56:21.350Z,10.00
2018-10-02T22:58:50.876Z,9.90
2018-10-02T23:01:20.308Z,9.90
2018-10-02T23:03:49.628Z,9.90
2018-10-02T23:06:19.178Z,9.90
2018-10-02T23:08:48.562Z,10.00
2018-10-02T23:11:17.877Z,9.90
2018-10-02T23:13:47.245Z,9.80
2018-10-02T23:16:16.669Z,9.80
2018-10-02T23:18:46.076Z,9.80
2018-10-02T23:21:15.529Z,9.90
2018-10-02T23:23:44.828Z,9.90
2018-10-02T23:26:14.263Z,9.90
2018-10-02T23:28:43.674Z,9.90
2018-10-02T23:31:13.224Z,10.00
2018-10-02T23:33:42.717Z,10.00
2018-10-02T23:36:12.094Z,10.00
2018-10-02T23:38:41.442Z,10.10
2018-10-02T23:41:10.856Z,10.10
2018-10-02T23:43:40.331Z,10.10
2018-10-02T23:46:09.734Z,10.10
2018-10-02T23:48:39.163Z,10.10
2018-10-02T23:51:08.484Z,10.10
2018-10-02T23:53:37.972Z,10.10
2018-10-02T23:56:07.403Z,10.10
2018-10-02T23:58:36.714Z,10.00
